Time;durP1;ratioP1;P1;durP2;ratioP2;P2;SDS_P1;SDS_P2;PMS_P1;PMS_P2;Temp;Humidity;BMP_temperature;BMP_pressure;BME280_temperature;BME280_humidity;BME280_pressure;Samples;Min_cycle;Max_cycle;Signal;HPM_P1;HPM_P2
2021/08/24 05:22:16;;;;;;;0.60;0.40;;;;;;;;;;7428695;19;20084;-56
2021/08/24 05:24:44;;;;;;;2.20;0.70;;;;;;;;;;7430606;19;20045;-58
2021/08/24 05:27:11;;;;;;;1.17;0.50;;;;;;;;;;7427378;19;20098;-58
2021/08/24 05:29:39;;;;;;;1.98;0.70;;;;;;;;;;7400343;19;82503;-56
2021/08/24 05:32:07;;;;;;;1.50;0.93;;;;;;;;;;7429962;19;20488;-57
2021/08/24 05:34:34;;;;;;;2.30;0.43;;;;;;;;;;7430279;19;20010;-51
2021/08/24 05:37:03;;;;;;;1.02;0.70;;;;;;;;;;7429954;19;20014;-58
2021/08/24 05:39:30;;;;;;;2.15;0.50;;;;;;;;;;7429824;19;20086;-58
2021/08/24 05:41:57;;;;;;;2.70;0.98;;;;;;;;;;7426532;19;20424;-58
2021/08/24 05:44:25;;;;;;;11.10;5.57;;;;;;;;;;7429803;19;20085;-58
2021/08/24 05:46:52;;;;;;;37.30;19.40;;;;;;;;;;7429864;19;20026;-58
2021/08/24 05:49:20;;;;;;;2.33;1.55;;;;;;;;;;7429619;19;20094;-57
2021/08/24 05:51:47;;;;;;;1.23;0.60;;;;;;;;;;7428876;19;20126;-58
2021/08/24 05:54:15;;;;;;;2.85;0.50;;;;;;;;;;7428548;19;20021;-58
2021/08/24 05:56:43;;;;;;;64.00;28.13;;;;;;;;;;7429321;19;20010;-60
2021/08/24 05:59:10;;;;;;;3.00;1.15;;;;;;;;;;7427576;19;20368;-58
2021/08/24 06:01:38;;;;;;;1.48;0.60;;;;;;;;;;7427400;19;20006;-58
2021/08/24 06:04:05;;;;;;;2.25;0.50;;;;;;;;;;7430155;19;20046;-57
2021/08/24 06:06:38;;;;;;;4.22;0.90;;;;;;;;;;7429180;19;20516;-58
2021/08/24 06:09:08;;;;;;;4.40;0.70;;;;;;;;;;7429948;19;20015;-59
2021/08/24 06:11:39;;;;;;;2.35;0.77;;;;;;;;;;7429274;19;20015;-60
2021/08/24 06:14:07;;;;;;;4.78;0.73;;;;;;;;;;7429137;19;20527;-58
2021/08/24 06:16:36;;;;;;;1.70;0.52;;;;;;;;;;7429400;19;20030;-54
2021/08/24 06:19:04;;;;;;;1.85;0.70;;;;;;;;;;7428830;19;20092;-61
2021/08/24 06:21:32;;;;;;;29.20;15.75;;;;;;;;;;7426175;19;20010;-57
2021/08/24 06:24:02;;;;;;;2.90;0.80;;;;;;;;;;7428880;19;20022;-59
2021/08/24 06:26:29;;;;;;;2.05;0.80;;;;;;;;;;7424447;19;20035;-58
2021/08/24 06:28:57;;;;;;;3.08;0.65;;;;;;;;;;7424356;19;20014;-59
2021/08/24 06:31:28;;;;;;;3.50;0.60;;;;;;;;;;7423258;19;20501;-58
2021/08/24 06:33:56;;;;;;;50.58;23.33;;;;;;;;;;7394487;19;20042;-57
2021/08/24 06:36:24;;;;;;;5.70;2.47;;;;;;;;;;7394864;19;20006;-59
2021/08/24 06:38:52;;;;;;;1.77;0.80;;;;;;;;;;7395507;19;20474;-58
2021/08/24 06:41:21;;;;;;;5.53;1.15;;;;;;;;;;7393771;19;20011;-58
2021/08/24 06:43:48;;;;;;;3.20;0.90;;;;;;;;;;7395483;19;20073;-58
2021/08/24 06:46:16;;;;;;;6.18;1.75;;;;;;;;;;7394739;19;20021;-59
2021/08/24 06:48:43;;;;;;;1.75;0.60;;;;;;;;;;7390116;19;20375;-51
2021/08/24 06:51:11;;;;;;;2.78;0.80;;;;;;;;;;7395116;19;20017;-58
2021/08/24 06:53:41;;;;;;;2.15;0.70;;;;;;;;;;7395248;19;20010;-57
2021/08/24 06:56:12;;;;;;;2.95;0.68;;;;;;;;;;7395039;19;20514;-59
2021/08/24 06:58:41;;;;;;;1.58;0.70;;;;;;;;;;7394910;19;20006;-58
2021/08/24 07:01:20;;;;;;;1.73;0.57;;;;;;;;;;7392014;19;20047;-54
2021/08/24 07:03:48;;;;;;;2.92;0.70;;;;;;;;;;7388575;19;20359;-57
2021/08/24 07:06:16;;;;;;;2.00;0.70;;;;;;;;;;7390184;19;20014;-57
2021/08/24 07:08:44;;;;;;;1.65;0.70;;;;;;;;;;7390042;19;20035;-57
2021/08/24 07:11:12;;;;;;;1.05;0.60;;;;;;;;;;7389662;19;20015;-59
2021/08/24 07:13:39;;;;;;;1.77;0.80;;;;;;;;;;7393798;19;20010;-58
2021/08/24 07:16:09;;;;;;;1.27;0.60;;;;;;;;;;7392184;19;20006;-54
2021/08/24 07:18:38;;;;;;;6.28;1.08;;;;;;;;;;7394940;19;20074;-52
2021/08/24 07:21:06;;;;;;;2.60;0.70;;;;;;;;;;7393279;19;20021;-58
2021/08/24 07:23:33;;;;;;;4.75;0.88;;;;;;;;;;7393980;19;20010;-59
2021/08/24 07:26:02;;;;;;;1.20;0.60;;;;;;;;;;7393326;19;20020;-58
2021/08/24 07:28:29;;;;;;;1.98;0.65;;;;;;;;;;7393646;19;20018;-59
2021/08/24 07:30:56;;;;;;;2.30;0.63;;;;;;;;;;7393729;19;20482;-54
2021/08/24 07:33:24;;;;;;;4.40;0.65;;;;;;;;;;7393882;19;20058;-58
2021/08/24 07:35:52;;;;;;;2.00;0.50;;;;;;;;;;7393529;19;20027;-56
2021/08/24 07:38:19;;;;;;;1.23;0.98;;;;;;;;;;7393535;19;20082;-50
2021/08/24 07:40:47;;;;;;;1.10;0.50;;;;;;;;;;7393061;19;20014;-55
2021/08/24 07:43:15;;;;;;;2.70;0.40;;;;;;;;;;7392848;19;20011;-59
2021/08/24 07:45:43;;;;;;;1.63;0.70;;;;;;;;;;7392119;19;20007;-53
2021/08/24 07:48:10;;;;;;;0.75;0.40;;;;;;;;;;7393012;19;20027;-56
2021/08/24 07:50:39;;;;;;;1.08;0.70;;;;;;;;;;7393770;19;20048;-59
2021/08/24 07:53:07;;;;;;;1.08;0.40;;;;;;;;;;7397916;19;20018;-57
2021/08/24 07:55:35;;;;;;;1.05;0.50;;;;;;;;;;7392650;19;20017;-58
2021/08/24 07:58:03;;;;;;;1.92;0.70;;;;;;;;;;7393381;19;20081;-57
2021/08/24 08:00:30;;;;;;;1.52;0.70;;;;;;;;;;7392586;19;20487;-58
2021/08/24 08:02:58;;;;;;;1.05;0.70;;;;;;;;;;7393112;19;20031;-57
2021/08/24 08:05:28;;;;;;;0.55;0.45;;;;;;;;;;7392345;19;20011;-58
2021/08/24 08:07:56;;;;;;;1.65;0.77;;;;;;;;;;7392911;19;20043;-58
2021/08/24 08:10:24;;;;;;;2.08;0.60;;;;;;;;;;7392260;19;20007;-58
2021/08/24 08:12:52;;;;;;;0.90;0.50;;;;;;;;;;7392228;19;20011;-58
2021/08/24 08:15:21;;;;;;;1.52;0.82;;;;;;;;;;7392177;19;20039;-58
2021/08/24 08:17:48;;;;;;;0.63;0.30;;;;;;;;;;7392578;19;20078;-58
2021/08/24 08:20:16;;;;;;;1.90;0.60;;;;;;;;;;7391221;19;20015;-54
2021/08/24 08:22:43;;;;;;;1.50;0.40;;;;;;;;;;7390359;19;20078;-58
2021/08/24 08:25:11;;;;;;;1.50;0.73;;;;;;;;;;7392109;19;20015;-57
2021/08/24 08:27:38;;;;;;;1.00;0.52;;;;;;;;;;7392138;19;20018;-59
2021/08/24 08:30:08;;;;;;;0.70;0.40;;;;;;;;;;7392407;19;20017;-59
2021/08/24 08:32:38;;;;;;;1.27;0.50;;;;;;;;;;7391758;19;20010;-56
2021/08/24 08:35:08;;;;;;;0.68;0.52;;;;;;;;;;7392080;19;20006;-58
2021/08/24 08:37:35;;;;;;;1.23;0.60;;;;;;;;;;7392384;19;20092;-54
2021/08/24 08:40:07;;;;;;;0.55;0.40;;;;;;;;;;7391612;19;20034;-57
2021/08/24 08:42:58;;;;;;;0.95;0.40;;;;;;;;;;7390655;19;20017;-59
2021/08/24 08:45:39;;;;;;;2.60;0.80;;;;;;;;;;7390234;19;20015;-59
2021/08/24 08:48:28;;;;;;;1.23;0.50;;;;;;;;;;7391783;19;20051;-59
2021/08/24 08:51:25;;;;;;;2.63;0.70;;;;;;;;;;7391147;19;20037;-58
2021/08/24 08:54:11;;;;;;;1.00;0.50;;;;;;;;;;7389857;19;20014;-57
2021/08/24 08:56:50;;;;;;;1.05;0.50;;;;;;;;;;7390757;19;20015;-59
2021/08/24 08:59:20;;;;;;;0.50;0.40;;;;;;;;;;7391247;19;20017;-55
2021/08/24 09:01:59;;;;;;;1.20;0.80;;;;;;;;;;7389768;19;20027;-56
2021/08/24 09:04:37;;;;;;;0.63;0.50;;;;;;;;;;7390905;19;20106;-57
2021/08/24 09:07:21;;;;;;;1.17;0.50;;;;;;;;;;7391139;19;20014;-58
2021/08/24 09:09:49;;;;;;;1.80;0.45;;;;;;;;;;7391074;19;20017;-59
2021/08/24 09:12:18;;;;;;;0.90;0.43;;;;;;;;;;7390754;19;20089;-59
2021/08/24 09:14:48;;;;;;;2.83;0.60;;;;;;;;;;7390756;19;20089;-58
2021/08/24 09:17:28;;;;;;;2.83;1.38;;;;;;;;;;7394671;19;20018;-59
2021/08/24 09:20:14;;;;;;;2.25;0.60;;;;;;;;;;7390472;19;20011;-59
2021/08/24 09:22:43;;;;;;;2.72;0.50;;;;;;;;;;7388703;19;20014;-59
2021/08/24 09:25:15;;;;;;;1.17;0.50;;;;;;;;;;7389254;19;20018;-57
2021/08/24 09:28:00;;;;;;;2.63;0.60;;;;;;;;;;7390212;19;20082;-58
2021/08/24 09:30:29;;;;;;;1.35;0.50;;;;;;;;;;7389649;19;20018;-59
2021/08/24 09:33:07;;;;;;;2.55;0.55;;;;;;;;;;7389841;19;20007;-59
2021/08/24 09:35:37;;;;;;;1.42;0.60;;;;;;;;;;7389845;19;20018;-58
2021/08/24 09:38:18;;;;;;;2.10;0.80;;;;;;;;;;7390061;19;20030;-58
2021/08/24 09:40:49;;;;;;;2.00;0.50;;;;;;;;;;7389453;19;20007;-58
2021/08/24 09:43:32;;;;;;;9.55;1.00;;;;;;;;;;7387264;19;20006;-58
2021/08/24 09:46:06;;;;;;;3.40;0.80;;;;;;;;;;7389552;19;20014;-58
2021/08/24 09:48:53;;;;;;;2.88;0.73;;;;;;;;;;7389907;19;20118;-58
2021/08/24 09:51:37;;;;;;;2.15;0.40;;;;;;;;;;7390371;19;20018;-59
2021/08/24 09:54:06;;;;;;;;;;;;;;;;;;7389459;19;20110;-58
2021/08/24 09:56:41;;;;;;;1.15;0.70;;;;;;;;;;7389845;19;19922;-57
2021/08/24 09:59:11;;;;;;;50.00;20.65;;;;;;;;;;7393913;19;20006;-57
2021/08/24 10:01:50;;;;;;;3.45;1.77;;;;;;;;;;7387628;19;20021;-58
2021/08/24 10:04:19;;;;;;;2.65;0.82;;;;;;;;;;7387242;19;20017;-56
2021/08/24 10:07:00;;;;;;;1.95;0.60;;;;;;;;;;7388921;19;20014;-58
2021/08/24 10:09:38;;;;;;;1.23;0.60;;;;;;;;;;7396879;19;20027;-53
2021/08/24 10:12:33;;;;;;;5.57;0.73;;;;;;;;;;7397368;19;20015;-55
2021/08/24 10:15:24;;;;;;;2.60;1.27;;;;;;;;;;7396681;19;20041;-57
2021/08/24 10:18:14;;;;;;;1.98;0.85;;;;;;;;;;7395182;19;20040;-59
2021/08/24 10:20:58;;;;;;;1.80;0.50;;;;;;;;;;7395146;19;20836;-56
2021/08/24 10:23:34;;;;;;;0.45;0.43;;;;;;;;;;7393713;19;20045;-57
2021/08/24 10:26:05;;;;;;;1.58;0.88;;;;;;;;;;7396104;19;20015;-59
2021/08/24 10:28:48;;;;;;;4.68;0.80;;;;;;;;;;7394185;19;20050;-58
2021/08/24 10:31:41;;;;;;;1.98;0.80;;;;;;;;;;7395702;19;20039;-58
2021/08/24 10:34:29;;;;;;;0.73;0.60;;;;;;;;;;7395355;19;20011;-58
2021/08/24 10:37:26;;;;;;;1.73;0.70;;;;;;;;;;7394502;19;20027;-58
2021/08/24 10:40:07;;;;;;;0.90;0.70;;;;;;;;;;7394704;19;20014;-57
2021/08/24 10:42:38;;;;;;;0.93;0.40;;;;;;;;;;7393982;19;20010;-54
2021/08/24 10:45:21;;;;;;;57.63;27.23;;;;;;;;;;7395733;19;20499;-59
2021/08/24 10:47:52;;;;;;;4.20;1.92;;;;;;;;;;7395264;19;20019;-51
2021/08/24 10:50:26;;;;;;;1.88;0.82;;;;;;;;;;7394697;19;20014;-56
2021/08/24 10:53:01;;;;;;;2.28;1.17;;;;;;;;;;7399024;19;20015;-56
2021/08/24 10:55:37;;;;;;;2.20;0.82;;;;;;;;;;7395072;19;20061;-58
2021/08/24 10:58:14;;;;;;;1.05;0.70;;;;;;;;;;7395123;19;20014;-50
2021/08/24 11:01:03;;;;;;;1.33;0.60;;;;;;;;;;7394764;19;20048;-57
2021/08/24 11:03:46;;;;;;;1.65;0.50;;;;;;;;;;7392663;19;20013;-57
2021/08/24 11:06:41;;;;;;;1.30;0.60;;;;;;;;;;7397078;19;20014;-57
2021/08/24 11:09:34;;;;;;;1.77;0.60;;;;;;;;;;7398088;19;20031;-56
2021/08/24 11:12:07;;;;;;;2.05;0.60;;;;;;;;;;7394593;19;20343;-57
2021/08/24 11:14:53;;;;;;;2.08;0.70;;;;;;;;;;7397113;19;20023;-58
2021/08/24 11:17:20;;;;;;;2.25;0.68;;;;;;;;;;7394675;19;20027;-58
2021/08/24 11:20:13;;;;;;;4.05;0.60;;;;;;;;;;7393857;19;20491;-56
2021/08/24 11:23:12;;;;;;;1.55;0.82;;;;;;;;;;7394747;19;20043;-54
2021/08/24 11:25:51;;;;;;;1.27;0.77;;;;;;;;;;7394670;19;20011;-55
2021/08/24 11:28:30;;;;;;;1.02;0.70;;;;;;;;;;7393946;19;20475;-58
2021/08/24 11:30:58;;;;;;;2.90;0.63;;;;;;;;;;7394037;19;20015;-60
2021/08/24 11:33:36;;;;;;;1.35;0.57;;;;;;;;;;7393752;19;20014;-61
2021/08/24 11:36:12;;;;;;;2.47;0.70;;;;;;;;;;7393171;19;20046;-60
2021/08/24 11:38:45;;;;;;;1.45;0.68;;;;;;;;;;7396591;19;20006;-61
2021/08/24 11:41:18;;;;;;;1.98;0.82;;;;;;;;;;7393496;19;20024;-59
2021/08/24 11:43:45;;;;;;;1.98;0.80;;;;;;;;;;7391483;19;20035;-61
2021/08/24 11:46:23;;;;;;;2.72;0.93;;;;;;;;;;7393145;19;20014;-59
2021/08/24 11:49:02;;;;;;;1.50;0.93;;;;;;;;;;7393538;19;20014;-60
2021/08/24 11:51:35;;;;;;;2.45;0.80;;;;;;;;;;7394258;19;20014;-61
2021/08/24 11:54:20;;;;;;;2.17;0.90;;;;;;;;;;7391375;19;20019;-60
2021/08/24 11:57:05;;;;;;;3.25;0.80;;;;;;;;;;7390994;19;20681;-62
2021/08/24 11:59:38;;;;;;;2.53;1.00;;;;;;;;;;7393033;19;20010;-61
2021/08/24 12:02:12;;;;;;;1.50;0.67;;;;;;;;;;7391430;19;20010;-59
2021/08/24 12:04:41;;;;;;;1.33;0.70;;;;;;;;;;7393277;19;20275;-60
2021/08/24 12:07:15;;;;;;;1.95;0.85;;;;;;;;;;7392872;19;20011;-60
2021/08/24 12:09:49;;;;;;;1.95;0.80;;;;;;;;;;7392758;19;20490;-61
2021/08/24 12:12:46;;;;;;;2.17;1.10;;;;;;;;;;7392805;19;20066;-61
2021/08/24 12:15:29;;;;;;;2.85;0.90;;;;;;;;;;7391598;19;20510;-63
2021/08/24 12:18:20;;;;;;;19.33;7.35;;;;;;;;;;7392419;19;20003;-67
2021/08/24 12:20:52;;;;;;;2.33;1.20;;;;;;;;;;7390625;19;20467;-60
2021/08/24 12:23:40;;;;;;;2.13;1.23;;;;;;;;;;7391067;19;20025;-59
2021/08/24 12:26:32;;;;;;;5.75;1.75;;;;;;;;;;7392115;19;20247;-60
2021/08/24 12:29:08;;;;;;;2.17;0.90;;;;;;;;;;7392222;19;20574;-60
2021/08/24 12:31:37;;;;;;;3.65;1.15;;;;;;;;;;7390875;19;20027;-58
2021/08/24 12:34:35;;;;;;;1.58;0.80;;;;;;;;;;7391757;19;20368;-56
2021/08/24 12:37:17;;;;;;;3.13;1.05;;;;;;;;;;7391619;19;20041;-61
2021/08/24 12:39:52;;;;;;;3.45;1.38;;;;;;;;;;7391185;19;20086;-59
2021/08/24 12:42:24;;;;;;;4.63;1.50;;;;;;;;;;7394855;19;20034;-60
2021/08/24 12:45:04;;;;;;;2.95;1.45;;;;;;;;;;7391735;19;20010;-54
2021/08/24 12:47:44;;;;;;;1.48;0.80;;;;;;;;;;7391356;19;20038;-57
2021/08/24 12:50:15;;;;;;;1.40;0.90;;;;;;;;;;7391011;19;20007;-59
2021/08/24 12:52:51;;;;;;;3.65;1.02;;;;;;;;;;7393546;19;20070;-59
2021/08/24 12:55:32;;;;;;;1.85;0.80;;;;;;;;;;7391056;19;20035;-56
2021/08/24 12:58:12;;;;;;;2.45;0.88;;;;;;;;;;7391081;19;20483;-58
2021/08/24 13:00:43;;;;;;;1.42;1.00;;;;;;;;;;7391263;19;20014;-54
2021/08/24 13:03:38;;;;;;;2.53;1.33;;;;;;;;;;7390184;19;20042;-55
2021/08/24 13:06:22;;;;;;;23.45;10.43;;;;;;;;;;7390844;19;20010;-54
2021/08/24 13:09:12;;;;;;;;;;;;;;;;;;7391443;19;20010;-56
2021/08/24 13:11:42;;;;;;;4.70;1.52;;;;;;;;;;7387086;19;19927;-56
2021/08/24 13:14:40;;;;;;;3.28;1.20;;;;;;;;;;7392904;19;20014;-53
2021/08/24 13:17:11;;;;;;;2.00;1.13;;;;;;;;;;7394671;19;20010;-54
2021/08/24 13:19:39;;;;;;;3.35;1.05;;;;;;;;;;7390042;19;20509;-57
2021/08/24 13:22:18;;;;;;;3.17;1.10;;;;;;;;;;7384854;19;20042;-58
2021/08/24 13:24:49;;;;;;;2.10;0.98;;;;;;;;;;7387682;19;20015;-57
2021/08/24 13:27:32;;;;;;;1.73;0.80;;;;;;;;;;7390500;19;20074;-57
2021/08/24 13:30:03;;;;;;;1.35;0.80;;;;;;;;;;7389940;19;20007;-54
2021/08/24 13:32:52;;;;;;;4.88;2.83;;;;;;;;;;7386876;19;20018;-54
2021/08/24 13:35:23;;;;;;;3.72;1.52;;;;;;;;;;7384961;19;20014;-54
2021/08/24 13:38:06;;;;;;;2.55;1.40;;;;;;;;;;7385454;19;20029;-54
2021/08/24 13:40:35;;;;;;;3.90;1.38;;;;;;;;;;7386924;19;20007;-62
2021/08/24 13:43:03;;;;;;;49.85;23.05;;;;;;;;;;7390377;19;20021;-59
2021/08/24 13:45:35;;;;;;;19.10;9.48;;;;;;;;;;7397760;19;20011;-60
2021/08/24 13:48:06;;;;;;;4.18;2.03;;;;;;;;;;7397495;19;20414;-60
2021/08/24 13:50:40;;;;;;;2.67;1.10;;;;;;;;;;7396808;19;20039;-60
2021/08/24 13:53:10;;;;;;;1.95;1.10;;;;;;;;;;7401171;19;20011;-60
2021/08/24 13:55:39;;;;;;;2.33;0.70;;;;;;;;;;7397130;19;20002;-60
2021/08/24 13:58:29;;;;;;;1.77;0.88;;;;;;;;;;7396939;19;20022;-61
2021/08/24 14:01:19;;;;;;;1.55;0.93;;;;;;;;;;7397136;19;20011;-61
2021/08/24 14:04:10;;;;;;;2.40;1.00;;;;;;;;;;7394253;19;20022;-61
2021/08/24 14:06:51;;;;;;;4.00;1.10;;;;;;;;;;7398127;19;20074;-61
2021/08/24 14:09:29;;;;;;;5.05;1.40;;;;;;;;;;7396662;19;20015;-60
2021/08/24 14:12:01;;;;;;;2.53;1.10;;;;;;;;;;7396344;19;20489;-60
2021/08/24 14:14:42;;;;;;;2.53;1.13;;;;;;;;;;7399597;19;20690;-60
2021/08/24 14:17:37;;;;;;;2.60;0.95;;;;;;;;;;7396552;19;20006;-61
2021/08/24 14:20:19;;;;;;;4.35;1.27;;;;;;;;;;7395843;19;20103;-61
2021/08/24 14:22:50;;;;;;;3.25;1.02;;;;;;;;;;7395092;19;20453;-60
2021/08/24 14:25:25;;;;;;;9.85;1.30;;;;;;;;;;7395647;19;20459;-60
2021/08/24 14:27:55;;;;;;;6.22;1.25;;;;;;;;;;7396209;19;20007;-61
2021/08/24 14:30:23;;;;;;;3.55;1.27;;;;;;;;;;7395516;19;20010;-61
2021/08/24 14:32:52;;;;;;;4.75;1.05;;;;;;;;;;7395217;19;20030;-61
2021/08/24 14:35:46;;;;;;;5.22;1.63;;;;;;;;;;7395621;19;20046;-61
2021/08/24 14:38:32;;;;;;;2.08;1.05;;;;;;;;;;7395820;19;20013;-61
2021/08/24 14:41:30;;;;;;;3.10;0.95;;;;;;;;;;7395429;19;20010;-61
2021/08/24 14:44:07;;;;;;;65.80;33.20;;;;;;;;;;7392583;19;20086;-71
2021/08/24 14:46:44;;;;;;;15.20;7.57;;;;;;;;;;7395143;19;20364;-62
2021/08/24 14:49:21;;;;;;;4.45;2.00;;;;;;;;;;7395500;19;20010;-60
2021/08/24 14:51:49;;;;;;;2.90;1.20;;;;;;;;;;7396767;19;20018;-61
2021/08/24 14:54:30;;;;;;;2.22;0.88;;;;;;;;;;7393662;19;20011;-62
2021/08/24 14:57:44;;;;;;;2.47;1.10;;;;;;;;;;7394807;19;20070;-62
2021/08/24 15:00:25;;;;;;;3.28;1.20;;;;;;;;;;7391050;19;20083;-60
2021/08/24 15:02:59;;;;;;;2.70;1.20;;;;;;;;;;7393006;19;20423;-61
2021/08/24 15:05:43;;;;;;;3.05;0.95;;;;;;;;;;7393656;19;20078;-60
2021/08/24 15:08:26;;;;;;;1.85;1.15;;;;;;;;;;7394826;19;20106;-61
2021/08/24 15:11:14;;;;;;;3.03;1.08;;;;;;;;;;7394672;19;20010;-60
2021/08/24 15:14:04;;;;;;;2.22;1.05;;;;;;;;;;7397329;19;20018;-60
2021/08/24 15:16:35;;;;;;;2.10;1.13;;;;;;;;;;7398541;19;20017;-62
2021/08/24 15:19:13;;;;;;;2.30;1.10;;;;;;;;;;7394389;19;20182;-60
2021/08/24 15:21:47;;;;;;;2.75;1.15;;;;;;;;;;7392664;19;20027;-63
2021/08/24 15:24:22;;;;;;;1.30;0.75;;;;;;;;;;7392432;19;20010;-61
2021/08/24 15:27:14;;;;;;;1.98;1.00;;;;;;;;;;7394409;19;20021;-63
2021/08/24 15:30:04;;;;;;;2.33;1.00;;;;;;;;;;7393234;19;20078;-61
2021/08/24 15:32:40;;;;;;;1.70;0.90;;;;;;;;;;7394101;19;20006;-61
2021/08/24 15:35:16;;;;;;;2.50;1.00;;;;;;;;;;7393807;19;20042;-61
2021/08/24 15:37:46;;;;;;;4.15;1.10;;;;;;;;;;7393910;19;20018;-62
2021/08/24 15:40:17;;;;;;;1.90;0.93;;;;;;;;;;7393712;19;20082;-60
2021/08/24 15:42:45;;;;;;;2.20;0.98;;;;;;;;;;7393680;19;20082;-62
2021/08/24 15:45:33;;;;;;;1.42;0.82;;;;;;;;;;7393601;19;20014;-59
2021/08/24 15:48:01;;;;;;;2.90;1.35;;;;;;;;;;7392753;19;20013;-66
2021/08/24 15:50:40;;;;;;;1.40;0.80;;;;;;;;;;7392656;19;20019;-62
2021/08/24 15:53:08;;;;;;;3.53;1.15;;;;;;;;;;7397642;19;20032;-62
2021/08/24 15:55:38;;;;;;;3.33;1.60;;;;;;;;;;7392757;19;20015;-62
2021/08/24 15:58:05;;;;;;;2.90;1.38;;;;;;;;;;7393480;19;20002;-64
2021/08/24 16:00:38;;;;;;;4.35;1.52;;;;;;;;;;7392563;19;20014;-62
2021/08/24 16:03:08;;;;;;;2.83;1.58;;;;;;;;;;7392014;19;20499;-65
2021/08/24 16:05:36;;;;;;;4.85;1.70;;;;;;;;;;7390746;19;20367;-62
2021/08/24 16:08:05;;;;;;;4.53;1.33;;;;;;;;;;7392505;19;20078;-62
2021/08/24 16:10:37;;;;;;;4.85;2.00;;;;;;;;;;7392713;19;20018;-61
2021/08/24 16:13:08;;;;;;;5.78;1.83;;;;;;;;;;7392738;19;20039;-65
2021/08/24 16:15:36;;;;;;;9.20;1.75;;;;;;;;;;7392724;19;20023;-65
2021/08/24 16:18:05;;;;;;;5.32;1.48;;;;;;;;;;7392441;19;20497;-63
2021/08/24 16:20:36;;;;;;;4.15;1.33;;;;;;;;;;7391046;19;20029;-58
2021/08/24 16:23:04;;;;;;;6.50;1.52;;;;;;;;;;7391592;19;20074;-60
2021/08/24 16:25:33;;;;;;;2.42;1.30;;;;;;;;;;7394629;19;20018;-60
2021/08/24 16:28:01;;;;;;;4.85;1.33;;;;;;;;;;7390707;19;20023;-61
2021/08/24 16:30:32;;;;;;;2.80;1.33;;;;;;;;;;7391784;19;20010;-59
2021/08/24 16:33:00;;;;;;;2.45;1.33;;;;;;;;;;7390567;19;20021;-61
2021/08/24 16:35:35;;;;;;;2.55;1.15;;;;;;;;;;7392287;19;20010;-59
2021/08/24 16:38:07;;;;;;;2.22;1.10;;;;;;;;;;7391455;19;20014;-60
2021/08/24 16:40:36;;;;;;;2.85;0.95;;;;;;;;;;7391793;19;20010;-60
2021/08/24 16:43:04;;;;;;;3.08;2.30;;;;;;;;;;7391007;19;20086;-59
2021/08/24 16:45:31;;;;;;;12.18;6.22;;;;;;;;;;7391263;19;20343;-60
2021/08/24 16:47:59;;;;;;;37.70;10.77;;;;;;;;;;7391683;19;20013;-57
2021/08/24 16:50:28;;;;;;;40.65;6.53;;;;;;;;;;7390517;19;20007;-60
2021/08/24 16:52:55;;;;;;;15.60;2.88;;;;;;;;;;7395061;19;20006;-59
2021/08/24 16:55:25;;;;;;;15.88;2.65;;;;;;;;;;7393512;19;20118;-59
2021/08/24 16:57:53;;;;;;;25.13;5.22;;;;;;;;;;7391180;19;20033;-58
2021/08/24 17:00:23;;;;;;;11.27;2.42;;;;;;;;;;7391643;19;20011;-58
2021/08/24 17:02:52;;;;;;;9.38;2.20;;;;;;;;;;7390713;19;20010;-55
2021/08/24 17:05:26;;;;;;;8.13;1.90;;;;;;;;;;7390997;19;20018;-60
2021/08/24 17:07:54;;;;;;;;;;;;;;;;;;7390140;19;20031;-60
2021/08/24 17:10:22;;;;;;;4.45;1.38;;;;;;;;;;7390957;19;19942;-60
2021/08/24 17:12:50;;;;;;;3.55;1.50;;;;;;;;;;7391041;19;20018;-59
2021/08/24 17:15:32;;;;;;;3.63;1.40;;;;;;;;;;7390864;19;20007;-61
2021/08/24 17:18:00;;;;;;;9.27;2.53;;;;;;;;;;7389846;19;20808;-60
2021/08/24 17:20:29;;;;;;;2.88;1.38;;;;;;;;;;7390147;19;20038;-60
2021/08/24 17:22:57;;;;;;;3.50;1.48;;;;;;;;;;7389782;19;20094;-60
2021/08/24 17:25:30;;;;;;;5.15;1.45;;;;;;;;;;7390588;19;20038;-59
2021/08/24 17:27:58;;;;;;;3.67;1.30;;;;;;;;;;7389773;19;20475;-64
2021/08/24 17:30:25;;;;;;;7.45;2.50;;;;;;;;;;7390901;19;20010;-63
2021/08/24 17:32:53;;;;;;;12.30;6.78;;;;;;;;;;7390591;19;20022;-62
2021/08/24 17:35:22;;;;;;;3.25;1.75;;;;;;;;;;7390435;19;20002;-63
2021/08/24 17:37:50;;;;;;;2.63;1.13;;;;;;;;;;7390108;19;20034;-62
2021/08/24 17:40:18;;;;;;;3.67;1.08;;;;;;;;;;7390071;19;20051;-62
2021/08/24 17:42:46;;;;;;;3.47;1.30;;;;;;;;;;7389495;19;20014;-61
2021/08/24 17:45:22;;;;;;;2.50;1.15;;;;;;;;;;7387569;19;20413;-59
2021/08/24 17:47:53;;;;;;;5.25;1.30;;;;;;;;;;7389679;19;20271;-61
2021/08/24 17:50:26;;;;;;;2.20;1.20;;;;;;;;;;7389959;19;20018;-61
2021/08/24 17:52:55;;;;;;;3.03;1.48;;;;;;;;;;7393054;19;20545;-59
2021/08/24 17:55:25;;;;;;;4.78;1.23;;;;;;;;;;7389631;19;20491;-60
2021/08/24 17:57:52;;;;;;;1.52;0.95;;;;;;;;;;7389968;19;20011;-62
2021/08/24 18:00:22;;;;;;;1.98;1.00;;;;;;;;;;7389545;19;20396;-61
2021/08/24 18:02:50;;;;;;;3.75;1.27;;;;;;;;;;7389431;19;20070;-62
2021/08/24 18:05:26;;;;;;;3.97;1.15;;;;;;;;;;7387038;19;20491;-60
2021/08/24 18:07:54;;;;;;;6.00;1.40;;;;;;;;;;7389734;19;20017;-60
2021/08/24 18:10:22;;;;;;;2.78;1.40;;;;;;;;;;7389012;19;20014;-62
2021/08/24 18:12:57;;;;;;;5.30;1.38;;;;;;;;;;7389038;19;20011;-60
2021/08/24 18:15:32;;;;;;;3.63;1.02;;;;;;;;;;7387819;19;20481;-60
2021/08/24 18:18:00;;;;;;;2.55;1.50;;;;;;;;;;7387008;19;20164;-60
2021/08/24 18:20:29;;;;;;;4.22;2.28;;;;;;;;;;7387999;19;20361;-59
2021/08/24 18:22:59;;;;;;;3.67;2.03;;;;;;;;;;7388917;19;20023;-58
2021/08/24 18:25:30;;;;;;;3.55;1.77;;;;;;;;;;7386805;19;20007;-62
2021/08/24 18:28:00;;;;;;;5.50;1.42;;;;;;;;;;7389322;19;20096;-60
2021/08/24 18:30:28;;;;;;;4.72;1.60;;;;;;;;;;7395554;19;20010;-60
2021/08/24 18:32:56;;;;;;;13.07;4.85;;;;;;;;;;7396128;19;20011;-56
2021/08/24 18:35:38;;;;;;;6.63;2.38;;;;;;;;;;7396140;19;20007;-61
2021/08/24 18:38:06;;;;;;;3.47;1.33;;;;;;;;;;7395546;19;20014;-61
2021/08/24 18:40:34;;;;;;;2.22;1.50;;;;;;;;;;7396623;19;20010;-62
2021/08/24 18:43:13;;;;;;;3.42;0.90;;;;;;;;;;7396918;19;20098;-62
2021/08/24 18:45:51;;;;;;;3.83;1.13;;;;;;;;;;7395087;19;20090;-61
2021/08/24 18:48:30;;;;;;;2.45;1.00;;;;;;;;;;7396054;19;20021;-62
2021/08/24 18:51:12;;;;;;;2.50;1.10;;;;;;;;;;7394794;19;20016;-61
2021/08/24 18:53:49;;;;;;;10.75;1.63;;;;;;;;;;7393502;19;20593;-61
2021/08/24 18:56:26;;;;;;;5.10;1.30;;;;;;;;;;7395661;19;20006;-61
2021/08/24 18:58:54;;;;;;;3.33;1.05;;;;;;;;;;7395715;19;20018;-62
2021/08/24 19:01:26;;;;;;;3.47;1.10;;;;;;;;;;7394615;19;20007;-61
2021/08/24 19:03:55;;;;;;;3.95;1.10;;;;;;;;;;7394077;19;20006;-59
2021/08/24 19:06:24;;;;;;;6.10;1.45;;;;;;;;;;7393446;19;20017;-59
2021/08/24 19:08:51;;;;;;;3.90;1.30;;;;;;;;;;7394497;19;20501;-60
2021/08/24 19:11:24;;;;;;;3.88;1.20;;;;;;;;;;7396892;19;20015;-61
2021/08/24 19:14:00;;;;;;;4.40;1.20;;;;;;;;;;7394216;19;20027;-61
2021/08/24 19:16:29;;;;;;;4.65;1.30;;;;;;;;;;7395155;19;20030;-61
2021/08/24 19:18:57;;;;;;;1.92;1.10;;;;;;;;;;7393369;19;20010;-61
2021/08/24 19:21:26;;;;;;;7.32;1.50;;;;;;;;;;7393271;19;20499;-59
2021/08/24 19:23:54;;;;;;;4.38;1.30;;;;;;;;;;7393948;19;20015;-60
2021/08/24 19:26:24;;;;;;;2.28;1.00;;;;;;;;;;7393797;19;20027;-61
2021/08/24 19:28:53;;;;;;;3.35;1.70;;;;;;;;;;7393480;19;20027;-60
2021/08/24 19:31:22;;;;;;;3.10;1.15;;;;;;;;;;7394125;19;20010;-60
2021/08/24 19:33:50;;;;;;;1.70;1.00;;;;;;;;;;7394037;19;20033;-58
2021/08/24 19:36:18;;;;;;;2.88;1.65;;;;;;;;;;7393384;19;20490;-61
2021/08/24 19:38:45;;;;;;;5.22;1.95;;;;;;;;;;7394401;19;20023;-55
2021/08/24 19:41:14;;;;;;;3.53;1.50;;;;;;;;;;7393661;19;20006;-61
2021/08/24 19:43:42;;;;;;;3.03;1.40;;;;;;;;;;7392687;19;20050;-60
2021/08/24 19:46:09;;;;;;;5.82;1.85;;;;;;;;;;7393294;19;20011;-60
2021/08/24 19:48:37;;;;;;;3.28;1.70;;;;;;;;;;7393469;19;20011;-60
2021/08/24 19:51:04;;;;;;;3.00;1.45;;;;;;;;;;7393261;19;20015;-59
2021/08/24 19:53:32;;;;;;;5.60;1.15;;;;;;;;;;7393212;19;20003;-58
2021/08/24 19:56:02;;;;;;;3.10;1.70;;;;;;;;;;7393047;19;20027;-58
2021/08/24 19:58:32;;;;;;;3.65;1.63;;;;;;;;;;7393314;19;20082;-60
2021/08/24 20:01:00;;;;;;;3.13;1.20;;;;;;;;;;7394099;19;20087;-59
2021/08/24 20:03:34;;;;;;;6.10;1.73;;;;;;;;;;7393157;19;20010;-59
2021/08/24 20:06:03;;;;;;;6.65;1.58;;;;;;;;;;7392909;19;20032;-58
2021/08/24 20:08:30;;;;;;;4.28;1.80;;;;;;;;;;7392675;19;20021;-60
2021/08/24 20:11:05;;;;;;;6.38;1.67;;;;;;;;;;7393077;19;20014;-56
2021/08/24 20:13:32;;;;;;;4.63;1.63;;;;;;;;;;7393168;19;20015;-59
2021/08/24 20:16:00;;;;;;;2.70;1.30;;;;;;;;;;7392801;19;20010;-58
2021/08/24 20:18:27;;;;;;;4.38;1.25;;;;;;;;;;7392076;19;20074;-60
2021/08/24 20:20:55;;;;;;;4.03;1.45;;;;;;;;;;7391169;19;20010;-58
2021/08/24 20:23:24;;;;;;;2.40;1.35;;;;;;;;;;7392343;19;20602;-59
2021/08/24 20:25:52;;;;;;;2.47;1.27;;;;;;;;;;7390646;19;20022;-60
2021/08/24 20:28:21;;;;;;;2.33;1.08;;;;;;;;;;7391357;19;20007;-60
2021/08/24 20:30:50;;;;;;;4.43;1.70;;;;;;;;;;7391912;19;20034;-60
2021/08/24 20:33:21;;;;;;;3.70;1.30;;;;;;;;;;7391816;19;20009;-60
2021/08/24 20:35:53;;;;;;;4.32;1.55;;;;;;;;;;7391947;19;20031;-57
2021/08/24 20:38:21;;;;;;;4.28;1.33;;;;;;;;;;7391503;19;20513;-59
2021/08/24 20:40:51;;;;;;;5.05;1.38;;;;;;;;;;7393194;19;20047;-61
2021/08/24 20:43:21;;;;;;;2.47;1.10;;;;;;;;;;7391520;19;20014;-61